sensor_id;sensor_type;location;lat;lon;timestamp;pressure;altitude;pressure_sealevel;temperature;humidity
63190;BME280;49286;44.460;26.114;2023-02-14T00:01:36;101991.63;;;0.29;100.00
63190;BME280;49286;44.460;26.114;2023-02-14T00:04:02;101898.53;;;-0.51;100.00
63190;BME280;49286;44.460;26.114;2023-02-14T00:06:30;101852.63;;;-0.44;100.00
63190;BME280;49286;44.460;26.114;2023-02-14T00:09:02;101997.06;;;0.20;100.00
63190;BME280;49286;44.460;26.114;2023-02-14T00:11:28;101973.66;;;0.17;100.00
63190;BME280;49286;44.460;26.114;2023-02-14T00:13:54;101967.59;;;0.30;100.00
63190;BME280;49286;44.460;26.114;2023-02-14T00:16:38;101961.59;;;0.04;100.00
63190;BME280;49286;44.460;26.114;2023-02-14T00:19:04;101832.13;;;-0.92;100.00
63190;BME280;49286;44.460;26.114;2023-02-14T00:21:36;101798.66;;;-1.29;100.00
63190;BME280;49286;44.460;26.114;2023-02-14T00:26:36;101786.50;;;-1.07;100.00
63190;BME280;49286;44.460;26.114;2023-02-14T00:29:16;101796.50;;;-0.86;100.00
63190;BME280;49286;44.460;26.114;2023-02-14T00:31:43;101802.97;;;-0.79;100.00
63190;BME280;49286;44.460;26.114;2023-02-14T00:34:10;101828.19;;;-0.62;100.00
63190;BME280;49286;44.460;26.114;2023-02-14T00:36:36;101811.63;;;-0.66;100.00
63190;BME280;49286;44.460;26.114;2023-02-14T00:39:03;101883.16;;;-0.11;100.00
63190;BME280;49286;44.460;26.114;2023-02-14T00:41:29;101799.81;;;-0.62;100.00
63190;BME280;49286;44.460;26.114;2023-02-14T00:43:55;101786.88;;;-0.75;100.00
63190;BME280;49286;44.460;26.114;2023-02-14T00:46:22;101870.56;;;0.07;100.00
63190;BME280;49286;44.460;26.114;2023-02-14T00:48:47;101854.09;;;0.05;100.00
63190;BME280;49286;44.460;26.114;2023-02-14T00:51:13;101913.56;;;0.06;100.00
63190;BME280;49286;44.460;26.114;2023-02-14T00:53:39;101875.34;;;0.01;100.00
63190;BME280;49286;44.460;26.114;2023-02-14T00:56:05;101841.91;;;0.15;100.00
63190;BME280;49286;44.460;26.114;2023-02-14T00:58:31;101836.75;;;0.15;100.00
63190;BME280;49286;44.460;26.114;2023-02-14T01:00:57;101747.88;;;-0.55;100.00
63190;BME280;49286;44.460;26.114;2023-02-14T01:03:23;101894.53;;;0.31;100.00
63190;BME280;49286;44.460;26.114;2023-02-14T01:05:49;101900.78;;;0.34;100.00
63190;BME280;49286;44.460;26.114;2023-02-14T01:08:14;101884.19;;;0.17;100.00
63190;BME280;49286;44.460;26.114;2023-02-14T01:10:40;101839.19;;;-0.13;100.00
63190;BME280;49286;44.460;26.114;2023-02-14T01:13:06;101754.25;;;-0.63;100.00
63190;BME280;49286;44.460;26.114;2023-02-14T01:15:32;101909.97;;;-0.09;100.00
63190;BME280;49286;44.460;26.114;2023-02-14T01:17:58;101891.25;;;0.20;100.00
63190;BME280;49286;44.460;26.114;2023-02-14T01:20:25;101862.22;;;-0.03;100.00
63190;BME280;49286;44.460;26.114;2023-02-14T01:22:50;101748.59;;;-0.96;100.00
63190;BME280;49286;44.460;26.114;2023-02-14T01:25:15;101697.91;;;-1.09;100.00
63190;BME280;49286;44.460;26.114;2023-02-14T01:27:41;101734.00;;;-0.70;100.00
63190;BME280;49286;44.460;26.114;2023-02-14T01:30:07;101666.75;;;-1.00;100.00
63190;BME280;49286;44.460;26.114;2023-02-14T01:32:33;101842.28;;;-0.05;100.00
63190;BME280;49286;44.460;26.114;2023-02-14T01:34:59;101840.28;;;-0.23;100.00
63190;BME280;49286;44.460;26.114;2023-02-14T01:37:24;101673.78;;;-1.36;100.00
63190;BME280;49286;44.460;26.114;2023-02-14T01:39:50;101832.63;;;-0.34;100.00
63190;BME280;49286;44.460;26.114;2023-02-14T01:42:16;101708.72;;;-1.01;100.00
63190;BME280;49286;44.460;26.114;2023-02-14T01:47:10;101829.34;;;-0.32;100.00
63190;BME280;49286;44.460;26.114;2023-02-14T01:50:07;101852.09;;;-0.13;100.00
63190;BME280;49286;44.460;26.114;2023-02-14T01:52:36;101803.94;;;-0.39;100.00
63190;BME280;49286;44.460;26.114;2023-02-14T01:55:14;101804.88;;;-1.14;100.00
63190;BME280;49286;44.460;26.114;2023-02-14T01:57:48;101821.38;;;-0.48;100.00
63190;BME280;49286;44.460;26.114;2023-02-14T02:00:15;101800.41;;;-0.28;100.00
63190;BME280;49286;44.460;26.114;2023-02-14T02:03:00;101672.66;;;-1.14;100.00
63190;BME280;49286;44.460;26.114;2023-02-14T02:05:26;101771.97;;;-0.68;100.00
63190;BME280;49286;44.460;26.114;2023-02-14T02:07:55;101747.38;;;-0.62;100.00
63190;BME280;49286;44.460;26.114;2023-02-14T02:10:22;101767.41;;;-0.97;100.00
63190;BME280;49286;44.460;26.114;2023-02-14T02:12:49;101782.78;;;-0.60;100.00
63190;BME280;49286;44.460;26.114;2023-02-14T02:15:16;101672.03;;;-1.23;100.00
63190;BME280;49286;44.460;26.114;2023-02-14T02:42:56;101769.00;;;-0.60;100.00
63190;BME280;49286;44.460;26.114;2023-02-14T02:50:33;101677.81;;;-1.14;100.00
63190;BME280;49286;44.460;26.114;2023-02-14T02:53:27;101613.53;;;-1.51;100.00
63190;BME280;49286;44.460;26.114;2023-02-14T02:59:04;101587.78;;;-1.76;100.00
63190;BME280;49286;44.460;26.114;2023-02-14T03:01:37;101765.47;;;-0.88;100.00
63190;BME280;49286;44.460;26.114;2023-02-14T03:04:09;101673.47;;;-1.40;100.00
63190;BME280;49286;44.460;26.114;2023-02-14T03:06:55;101592.44;;;-1.59;100.00
63190;BME280;49286;44.460;26.114;2023-02-14T03:14:51;101591.25;;;-1.51;100.00
63190;BME280;49286;44.460;26.114;2023-02-14T03:17:35;101712.34;;;-0.86;100.00
63190;BME280;49286;44.460;26.114;2023-02-14T03:20:39;101744.78;;;-0.76;100.00
63190;BME280;49286;44.460;26.114;2023-02-14T03:23:20;101743.22;;;-0.99;100.00
63190;BME280;49286;44.460;26.114;2023-02-14T03:28:41;101730.63;;;-1.08;100.00
63190;BME280;49286;44.460;26.114;2023-02-14T03:34:15;101709.97;;;-0.96;100.00
63190;BME280;49286;44.460;26.114;2023-02-14T03:39:18;101698.66;;;-0.98;100.00
63190;BME280;49286;44.460;26.114;2023-02-14T03:42:02;101597.28;;;-1.50;100.00
63190;BME280;49286;44.460;26.114;2023-02-14T03:44:31;101586.78;;;-1.78;100.00
63190;BME280;49286;44.460;26.114;2023-02-14T03:47:03;101650.19;;;-1.03;100.00
63190;BME280;49286;44.460;26.114;2023-02-14T03:49:33;101586.31;;;-1.47;100.00
63190;BME280;49286;44.460;26.114;2023-02-14T03:52:01;101578.22;;;-1.27;100.00
63190;BME280;49286;44.460;26.114;2023-02-14T03:54:27;101691.97;;;-0.43;100.00
63190;BME280;49286;44.460;26.114;2023-02-14T03:59:30;101662.97;;;-0.92;100.00
63190;BME280;49286;44.460;26.114;2023-02-14T04:02:05;101666.09;;;-0.84;100.00
63190;BME280;49286;44.460;26.114;2023-02-14T04:04:33;101541.16;;;-1.56;100.00
63190;BME280;49286;44.460;26.114;2023-02-14T04:07:08;101573.28;;;-1.37;100.00
63190;BME280;49286;44.460;26.114;2023-02-14T04:09:34;101696.44;;;-0.67;100.00
63190;BME280;49286;44.460;26.114;2023-02-14T04:11:59;101693.72;;;-0.68;100.00
63190;BME280;49286;44.460;26.114;2023-02-14T04:14:25;101551.38;;;-1.82;100.00
63190;BME280;49286;44.460;26.114;2023-02-14T04:16:53;101685.22;;;-0.67;100.00
63190;BME280;49286;44.460;26.114;2023-02-14T04:19:38;101703.56;;;-1.14;100.00
63190;BME280;49286;44.460;26.114;2023-02-14T04:22:03;101592.94;;;-1.76;100.00
63190;BME280;49286;44.460;26.114;2023-02-14T04:24:29;101686.69;;;-0.84;100.00
63190;BME280;49286;44.460;26.114;2023-02-14T04:26:54;101567.53;;;-1.33;100.00
63190;BME280;49286;44.460;26.114;2023-02-14T04:29:47;101680.53;;;-0.73;100.00
63190;BME280;49286;44.460;26.114;2023-02-14T04:32:18;101543.59;;;-1.71;100.00
63190;BME280;49286;44.460;26.114;2023-02-14T04:34:47;101704.31;;;-0.90;100.00
63190;BME280;49286;44.460;26.114;2023-02-14T04:37:14;101674.28;;;-1.03;100.00
63190;BME280;49286;44.460;26.114;2023-02-14T04:39:40;101673.47;;;-1.02;100.00
63190;BME280;49286;44.460;26.114;2023-02-14T04:42:06;101706.31;;;-0.86;100.00
63190;BME280;49286;44.460;26.114;2023-02-14T04:44:31;101725.47;;;-1.08;100.00
63190;BME280;49286;44.460;26.114;2023-02-14T04:46:59;101551.56;;;-2.04;100.00
63190;BME280;49286;44.460;26.114;2023-02-14T04:49:24;101676.25;;;-1.37;100.00
63190;BME280;49286;44.460;26.114;2023-02-14T04:51:50;101542.66;;;-1.84;100.00
63190;BME280;49286;44.460;26.114;2023-02-14T04:54:15;101558.34;;;-1.68;100.00
63190;BME280;49286;44.460;26.114;2023-02-14T04:56:41;101699.38;;;-0.74;100.00
63190;BME280;49286;44.460;26.114;2023-02-14T04:59:06;101584.03;;;-1.56;100.00
63190;BME280;49286;44.460;26.114;2023-02-14T05:01:32;101630.09;;;-1.59;100.00
63190;BME280;49286;44.460;26.114;2023-02-14T05:03:57;101716.13;;;-0.80;100.00
63190;BME280;49286;44.460;26.114;2023-02-14T05:06:23;101704.00;;;-0.95;100.00
63190;BME280;49286;44.460;26.114;2023-02-14T05:08:48;101629.34;;;-1.33;100.00
63190;BME280;49286;44.460;26.114;2023-02-14T05:11:14;101720.34;;;-0.94;100.00
63190;BME280;49286;44.460;26.114;2023-02-14T05:13:39;101672.09;;;-0.97;100.00
63190;BME280;49286;44.460;26.114;2023-02-14T05:16:05;101546.19;;;-1.71;100.00
63190;BME280;49286;44.460;26.114;2023-02-14T05:18:30;101682.25;;;-0.87;100.00
63190;BME280;49286;44.460;26.114;2023-02-14T05:20:56;101688.00;;;-1.16;100.00
63190;BME280;49286;44.460;26.114;2023-02-14T05:23:22;101559.78;;;-1.85;100.00
63190;BME280;49286;44.460;26.114;2023-02-14T05:25:48;101537.47;;;-1.73;100.00
63190;BME280;49286;44.460;26.114;2023-02-14T05:28:14;101558.75;;;-1.62;100.00
63190;BME280;49286;44.460;26.114;2023-02-14T05:30:40;101589.25;;;-1.55;100.00
63190;BME280;49286;44.460;26.114;2023-02-14T05:33:06;101663.63;;;-1.21;100.00
63190;BME280;49286;44.460;26.114;2023-02-14T05:35:32;101556.63;;;-2.06;100.00
63190;BME280;49286;44.460;26.114;2023-02-14T05:37:57;101443.44;;;-2.44;100.00
63190;BME280;49286;44.460;26.114;2023-02-14T05:40:24;101705.25;;;-1.40;100.00
63190;BME280;49286;44.460;26.114;2023-02-14T05:42:53;101587.03;;;-2.12;100.00
63190;BME280;49286;44.460;26.114;2023-02-14T05:45:20;101694.00;;;-1.54;100.00
63190;BME280;49286;44.460;26.114;2023-02-14T05:47:47;101695.72;;;-1.66;100.00
63190;BME280;49286;44.460;26.114;2023-02-14T05:50:12;101716.69;;;-1.48;100.00
63190;BME280;49286;44.460;26.114;2023-02-14T05:52:38;101569.28;;;-1.84;100.00
63190;BME280;49286;44.460;26.114;2023-02-14T05:55:05;101659.56;;;-1.17;100.00
63190;BME280;49286;44.460;26.114;2023-02-14T05:57:31;101665.78;;;-0.89;100.00
63190;BME280;49286;44.460;26.114;2023-02-14T05:59:57;101731.25;;;-0.98;100.00
63190;BME280;49286;44.460;26.114;2023-02-14T06:02:22;101579.50;;;-1.97;100.00
63190;BME280;49286;44.460;26.114;2023-02-14T06:04:48;101700.81;;;-1.29;100.00
63190;BME280;49286;44.460;26.114;2023-02-14T06:07:13;101583.09;;;-2.07;100.00
63190;BME280;49286;44.460;26.114;2023-02-14T06:09:39;101576.50;;;-2.03;100.00
63190;BME280;49286;44.460;26.114;2023-02-14T06:12:05;101534.22;;;-2.32;100.00
63190;BME280;49286;44.460;26.114;2023-02-14T06:14:30;101706.63;;;-1.45;100.00
63190;BME280;49286;44.460;26.114;2023-02-14T06:16:56;101702.75;;;-1.38;100.00
63190;BME280;49286;44.460;26.114;2023-02-14T06:19:21;101723.69;;;-1.09;100.00
63190;BME280;49286;44.460;26.114;2023-02-14T06:21:47;101638.47;;;-1.75;100.00
63190;BME280;49286;44.460;26.114;2023-02-14T06:24:13;101728.97;;;-1.44;100.00
63190;BME280;49286;44.460;26.114;2023-02-14T06:26:39;101713.38;;;-1.34;100.00
63190;BME280;49286;44.460;26.114;2023-02-14T06:29:04;101672.09;;;-1.60;100.00
63190;BME280;49286;44.460;26.114;2023-02-14T06:31:30;101701.97;;;-1.37;100.00
63190;BME280;49286;44.460;26.114;2023-02-14T06:33:56;101691.50;;;-1.02;100.00
63190;BME280;49286;44.460;26.114;2023-02-14T06:36:23;101583.75;;;-1.34;100.00
63190;BME280;49286;44.460;26.114;2023-02-14T06:38:49;101656.28;;;-0.76;100.00
63190;BME280;49286;44.460;26.114;2023-02-14T06:41:15;101698.81;;;-0.56;100.00
63190;BME280;49286;44.460;26.114;2023-02-14T06:43:43;101585.88;;;-1.15;100.00
63190;BME280;49286;44.460;26.114;2023-02-14T06:46:09;101701.69;;;-0.52;100.00
63190;BME280;49286;44.460;26.114;2023-02-14T06:48:35;101623.19;;;-0.70;100.00
63190;BME280;49286;44.460;26.114;2023-02-14T06:51:00;101590.53;;;-1.23;100.00
63190;BME280;49286;44.460;26.114;2023-02-14T06:53:26;101591.25;;;-1.12;100.00
63190;BME280;49286;44.460;26.114;2023-02-14T06:55:52;101683.53;;;-0.40;100.00
63190;BME280;49286;44.460;26.114;2023-02-14T06:58:17;101689.88;;;-0.08;100.00
63190;BME280;49286;44.460;26.114;2023-02-14T07:00:45;101569.44;;;-0.64;100.00
63190;BME280;49286;44.460;26.114;2023-02-14T07:03:11;101643.44;;;-0.08;100.00
63190;BME280;49286;44.460;26.114;2023-02-14T07:05:37;101581.78;;;-0.32;100.00
63190;BME280;49286;44.460;26.114;2023-02-14T07:08:04;101653.75;;;-0.08;100.00
63190;BME280;49286;44.460;26.114;2023-02-14T07:10:31;101542.25;;;-0.46;100.00
63190;BME280;49286;44.460;26.114;2023-02-14T07:12:58;101592.00;;;-0.33;100.00
63190;BME280;49286;44.460;26.114;2023-02-14T07:15:24;101723.66;;;0.65;100.00
63190;BME280;49286;44.460;26.114;2023-02-14T07:17:49;101572.38;;;-0.31;100.00
63190;BME280;49286;44.460;26.114;2023-02-14T07:20:15;101706.84;;;0.71;100.00
63190;BME280;49286;44.460;26.114;2023-02-14T07:22:40;101560.75;;;0.04;100.00
63190;BME280;49286;44.460;26.114;2023-02-14T07:25:06;101736.84;;;1.12;100.00
63190;BME280;49286;44.460;26.114;2023-02-14T07:27:32;101693.50;;;0.78;100.00
63190;BME280;49286;44.460;26.114;2023-02-14T07:29:58;101578.34;;;0.24;100.00
63190;BME280;49286;44.460;26.114;2023-02-14T07:32:23;101598.69;;;0.48;100.00
63190;BME280;49286;44.460;26.114;2023-02-14T07:34:49;101738.22;;;1.50;100.00
63190;BME280;49286;44.460;26.114;2023-02-14T07:37:15;101726.00;;;1.62;100.00
63190;BME280;49286;44.460;26.114;2023-02-14T07:39:42;101709.75;;;1.65;100.00
63190;BME280;49286;44.460;26.114;2023-02-14T07:42:08;101610.06;;;1.40;100.00
63190;BME280;49286;44.460;26.114;2023-02-14T07:44:35;101638.25;;;1.51;100.00
63190;BME280;49286;44.460;26.114;2023-02-14T07:47:02;101777.78;;;2.40;100.00
63190;BME280;49286;44.460;26.114;2023-02-14T07:49:28;101626.81;;;1.62;100.00
63190;BME280;49286;44.460;26.114;2023-02-14T07:51:53;101642.78;;;1.86;100.00
63190;BME280;49286;44.460;26.114;2023-02-14T07:54:18;101658.75;;;2.10;100.00
63190;BME280;49286;44.460;26.114;2023-02-14T07:56:44;101734.91;;;2.61;100.00
63190;BME280;49286;44.460;26.114;2023-02-14T07:59:09;101790.41;;;3.14;100.00
63190;BME280;49286;44.460;26.114;2023-02-14T08:01:35;101818.59;;;3.24;100.00
63190;BME280;49286;44.460;26.114;2023-02-14T08:04:00;101820.56;;;3.28;100.00
63190;BME280;49286;44.460;26.114;2023-02-14T08:06:26;101698.53;;;2.60;100.00
63190;BME280;49286;44.460;26.114;2023-02-14T08:08:52;101774.59;;;3.26;100.00
63190;BME280;49286;44.460;26.114;2023-02-14T08:11:17;101757.84;;;3.37;100.00
63190;BME280;49286;44.460;26.114;2023-02-14T08:14:03;101818.34;;;3.87;100.00
63190;BME280;49286;44.460;26.114;2023-02-14T08:16:29;101709.47;;;2.87;100.00
63190;BME280;49286;44.460;26.114;2023-02-14T08:18:58;101723.22;;;3.19;100.00
63190;BME280;49286;44.460;26.114;2023-02-14T08:21:24;101747.44;;;3.53;100.00
63190;BME280;49286;44.460;26.114;2023-02-14T08:23:49;101855.00;;;4.11;100.00
63190;BME280;49286;44.460;26.114;2023-02-14T08:26:15;101837.41;;;4.23;100.00
63190;BME280;49286;44.460;26.114;2023-02-14T08:28:42;101761.09;;;3.67;100.00
63190;BME280;49286;44.460;26.114;2023-02-14T08:31:07;101859.25;;;4.27;100.00
63190;BME280;49286;44.460;26.114;2023-02-14T08:33:33;101881.59;;;4.23;100.00
63190;BME280;49286;44.460;26.114;2023-02-14T08:35:58;101872.31;;;4.28;100.00
63190;BME280;49286;44.460;26.114;2023-02-14T08:38:24;101861.09;;;4.47;100.00
63190;BME280;49286;44.460;26.114;2023-02-14T08:40:50;101888.16;;;4.69;100.00
63190;BME280;49286;44.460;26.114;2023-02-14T08:43:15;101871.47;;;4.83;100.00
63190;BME280;49286;44.460;26.114;2023-02-14T08:45:41;101889.06;;;4.89;100.00
63190;BME280;49286;44.460;26.114;2023-02-14T08:48:09;101714.31;;;4.19;100.00
63190;BME280;49286;44.460;26.114;2023-02-14T08:50:35;101727.09;;;4.34;100.00
63190;BME280;49286;44.460;26.114;2023-02-14T08:53:06;101757.44;;;4.35;100.00
63190;BME280;49286;44.460;26.114;2023-02-14T08:55:33;101806.50;;;4.84;100.00
63190;BME280;49286;44.460;26.114;2023-02-14T08:57:59;101760.22;;;4.76;100.00
63190;BME280;49286;44.460;26.114;2023-02-14T09:00:24;101863.31;;;5.52;100.00
63190;BME280;49286;44.460;26.114;2023-02-14T09:02:51;101884.53;;;5.61;100.00
63190;BME280;49286;44.460;26.114;2023-02-14T09:05:17;101804.63;;;5.19;100.00
63190;BME280;49286;44.460;26.114;2023-02-14T09:07:43;101864.22;;;5.73;100.00
63190;BME280;49286;44.460;26.114;2023-02-14T09:10:08;101890.19;;;5.91;100.00
63190;BME280;49286;44.460;26.114;2023-02-14T09:12:37;101803.44;;;5.52;100.00
63190;BME280;49286;44.460;26.114;2023-02-14T09:15:02;101778.28;;;5.52;100.00
63190;BME280;49286;44.460;26.114;2023-02-14T09:17:28;101907.06;;;5.99;100.00
63190;BME280;49286;44.460;26.114;2023-02-14T09:19:54;101837.44;;;5.16;100.00
63190;BME280;49286;44.460;26.114;2023-02-14T09:22:20;101818.75;;;5.24;100.00
63190;BME280;49286;44.460;26.114;2023-02-14T09:24:47;101878.28;;;5.77;100.00
63190;BME280;49286;44.460;26.114;2023-02-14T09:27:12;101912.88;;;6.34;100.00
63190;BME280;49286;44.460;26.114;2023-02-14T09:29:38;101865.91;;;6.11;100.00
63190;BME280;49286;44.460;26.114;2023-02-14T09:32:03;101915.28;;;6.50;100.00
63190;BME280;49286;44.460;26.114;2023-02-14T09:34:29;101923.06;;;6.49;100.00
63190;BME280;49286;44.460;26.114;2023-02-14T09:36:56;101908.56;;;6.55;100.00
63190;BME280;49286;44.460;26.114;2023-02-14T09:39:40;101894.13;;;6.43;100.00
63190;BME280;49286;44.460;26.114;2023-02-14T09:45:20;101891.09;;;6.54;100.00
63190;BME280;49286;44.460;26.114;2023-02-14T09:47:49;101845.69;;;5.65;100.00
63190;BME280;49286;44.460;26.114;2023-02-14T09:50:26;101906.06;;;6.17;100.00
63190;BME280;49286;44.460;26.114;2023-02-14T09:52:57;101877.78;;;6.05;100.00
63190;BME280;49286;44.460;26.114;2023-02-14T09:56:16;101885.78;;;6.74;100.00
63190;BME280;49286;44.460;26.114;2023-02-14T09:58:32;101895.53;;;6.78;100.00
63190;BME280;49286;44.460;26.114;2023-02-14T10:01:22;101791.19;;;6.33;100.00
63190;BME280;49286;44.460;26.114;2023-02-14T10:11:46;101889.69;;;6.84;100.00
63190;BME280;49286;44.460;26.114;2023-02-14T10:14:25;101867.28;;;7.13;98.32
63190;BME280;49286;44.460;26.114;2023-02-14T10:16:56;101885.81;;;7.43;95.74
63190;BME280;49286;44.460;26.114;2023-02-14T10:19:38;101764.63;;;6.43;96.26
63190;BME280;49286;44.460;26.114;2023-02-14T10:22:13;101865.28;;;7.30;97.04
63190;BME280;49286;44.460;26.114;2023-02-14T10:24:44;101824.41;;;7.30;94.74
63190;BME280;49286;44.460;26.114;2023-02-14T10:27:23;101860.00;;;7.04;99.21
63190;BME280;49286;44.460;26.114;2023-02-14T10:29:53;101770.09;;;7.20;95.05
63190;BME280;49286;44.460;26.114;2023-02-14T10:32:45;101824.97;;;7.46;94.04
63190;BME280;49286;44.460;26.114;2023-02-14T10:38:24;101825.69;;;7.42;87.99
63190;BME280;49286;44.460;26.114;2023-02-14T10:54:43;101823.72;;;7.60;75.83
63190;BME280;49286;44.460;26.114;2023-02-14T10:57:32;101727.03;;;7.07;76.16
63190;BME280;49286;44.460;26.114;2023-02-14T11:00:00;101829.72;;;7.57;75.10
63190;BME280;49286;44.460;26.114;2023-02-14T11:02:34;101728.16;;;7.15;75.30
63190;BME280;49286;44.460;26.114;2023-02-14T11:05:02;101782.72;;;7.83;73.57
63190;BME280;49286;44.460;26.114;2023-02-14T11:07:28;101812.69;;;8.76;72.51
63190;BME280;49286;44.460;26.114;2023-02-14T11:09:55;101669.03;;;8.26;69.56
63190;BME280;49286;44.460;26.114;2023-02-14T11:12:50;101805.06;;;9.14;70.94
63190;BME280;49286;44.460;26.114;2023-02-14T11:17:41;101702.56;;;8.39;68.27
63190;BME280;49286;44.460;26.114;2023-02-14T11:20:28;101694.41;;;9.21;65.79
63190;BME280;49286;44.460;26.114;2023-02-14T11:22:55;101769.41;;;9.85;64.58
63190;BME280;49286;44.460;26.114;2023-02-14T11:25:22;101799.75;;;10.10;63.20
63190;BME280;49286;44.460;26.114;2023-02-14T11:27:53;101804.06;;;10.08;61.52
63190;BME280;49286;44.460;26.114;2023-02-14T11:30:32;101797.16;;;10.12;60.87
63190;BME280;49286;44.460;26.114;2023-02-14T11:32:59;101711.94;;;9.58;60.97
63190;BME280;49286;44.460;26.114;2023-02-14T11:35:27;101694.44;;;9.56;59.36
63190;BME280;49286;44.460;26.114;2023-02-14T11:38:00;101610.81;;;8.62;57.18
63190;BME280;49286;44.460;26.114;2023-02-14T11:40:30;101791.75;;;8.20;62.17
63190;BME280;49286;44.460;26.114;2023-02-14T11:42:58;101760.31;;;7.91;64.38
63190;BME280;49286;44.460;26.114;2023-02-14T11:45:34;101674.22;;;7.96;61.94
63190;BME280;49286;44.460;26.114;2023-02-14T11:50:41;101643.69;;;8.23;64.68
63190;BME280;49286;44.460;26.114;2023-02-14T11:53:12;101740.44;;;9.13;62.81
63190;BME280;49286;44.460;26.114;2023-02-14T11:55:50;101761.81;;;9.28;63.35
63190;BME280;49286;44.460;26.114;2023-02-14T11:58:47;101736.19;;;8.27;64.26
63190;BME280;49286;44.460;26.114;2023-02-14T12:01:23;101753.56;;;9.14;62.12
63190;BME280;49286;44.460;26.114;2023-02-14T12:03:50;101613.44;;;8.32;62.90
63190;BME280;49286;44.460;26.114;2023-02-14T12:06:35;101706.94;;;8.12;65.45
63190;BME280;49286;44.460;26.114;2023-02-14T12:11:59;101619.44;;;7.70;66.07
63190;BME280;49286;44.460;26.114;2023-02-14T12:14:28;101735.34;;;8.85;65.04
63190;BME280;49286;44.460;26.114;2023-02-14T12:19:41;101606.16;;;8.21;62.41
63190;BME280;49286;44.460;26.114;2023-02-14T12:22:13;101615.47;;;8.42;61.57
63190;BME280;49286;44.460;26.114;2023-02-14T12:27:18;101604.44;;;8.22;62.41
63190;BME280;49286;44.460;26.114;2023-02-14T12:30:13;101687.66;;;8.97;61.88
63190;BME280;49286;44.460;26.114;2023-02-14T12:32:47;101579.78;;;8.14;62.20
63190;BME280;49286;44.460;26.114;2023-02-14T12:42:59;101699.16;;;9.02;60.96
63190;BME280;49286;44.460;26.114;2023-02-14T12:48:33;101672.78;;;8.95;59.96
63190;BME280;49286;44.460;26.114;2023-02-14T12:53:55;101700.88;;;9.02;60.03
63190;BME280;49286;44.460;26.114;2023-02-14T12:59:31;101715.59;;;8.97;60.81
63190;BME280;49286;44.460;26.114;2023-02-14T13:13:06;101585.22;;;8.20;67.54
63190;BME280;49286;44.460;26.114;2023-02-14T13:15:45;101583.81;;;8.02;67.96
63190;BME280;49286;44.460;26.114;2023-02-14T13:21:09;101570.22;;;8.14;68.50
63190;BME280;49286;44.460;26.114;2023-02-14T13:23:40;101679.69;;;8.93;68.38
63190;BME280;49286;44.460;26.114;2023-02-14T13:26:17;101673.53;;;8.91;68.75
63190;BME280;49286;44.460;26.114;2023-02-14T13:29:05;101691.38;;;9.05;65.51
63190;BME280;49286;44.460;26.114;2023-02-14T13:31:32;101609.81;;;8.27;66.49
63190;BME280;49286;44.460;26.114;2023-02-14T13:34:34;101674.91;;;8.78;66.27
63190;BME280;49286;44.460;26.114;2023-02-14T13:36:59;101658.31;;;8.76;63.18
63190;BME280;49286;44.460;26.114;2023-02-14T13:41:56;101627.72;;;8.75;65.69
63190;BME280;49286;44.460;26.114;2023-02-14T13:47:06;101561.03;;;8.29;62.85
63190;BME280;49286;44.460;26.114;2023-02-14T13:49:46;101634.00;;;8.50;63.87
63190;BME280;49286;44.460;26.114;2023-02-14T13:52:13;101647.41;;;8.60;63.96
63190;BME280;49286;44.460;26.114;2023-02-14T13:55:06;101655.84;;;8.82;66.23
63190;BME280;49286;44.460;26.114;2023-02-14T13:57:36;101654.91;;;8.80;67.09
63190;BME280;49286;44.460;26.114;2023-02-14T14:02:53;101658.75;;;8.61;69.13
63190;BME280;49286;44.460;26.114;2023-02-14T14:18:44;101532.34;;;7.70;69.31
63190;BME280;49286;44.460;26.114;2023-02-14T14:22:02;101650.38;;;8.42;70.56
63190;BME280;49286;44.460;26.114;2023-02-14T14:24:23;101605.25;;;8.21;69.01
63190;BME280;49286;44.460;26.114;2023-02-14T14:29:31;101550.16;;;7.83;66.62
63190;BME280;49286;44.460;26.114;2023-02-14T14:32:09;101562.88;;;7.72;65.93
63190;BME280;49286;44.460;26.114;2023-02-14T14:34:47;101533.84;;;7.33;67.35
63190;BME280;49286;44.460;26.114;2023-02-14T14:37:20;101538.94;;;7.57;68.08
63190;BME280;49286;44.460;26.114;2023-02-14T14:39:57;101655.06;;;8.25;67.69
63190;BME280;49286;44.460;26.114;2023-02-14T14:42:26;101545.78;;;7.53;67.89
63190;BME280;49286;44.460;26.114;2023-02-14T14:45:00;101657.53;;;8.19;67.62
63190;BME280;49286;44.460;26.114;2023-02-14T14:47:33;101655.00;;;8.22;67.95
63190;BME280;49286;44.460;26.114;2023-02-14T14:50:07;101658.50;;;8.23;68.05
63190;BME280;49286;44.460;26.114;2023-02-14T14:52:40;101556.78;;;7.72;67.61
63190;BME280;49286;44.460;26.114;2023-02-14T14:55:22;101552.59;;;7.48;69.53
63190;BME280;49286;44.460;26.114;2023-02-14T14:57:50;101651.19;;;7.84;70.20
63190;BME280;49286;44.460;26.114;2023-02-14T15:00:21;101655.59;;;7.85;69.01
63190;BME280;49286;44.460;26.114;2023-02-14T15:03:00;101644.72;;;7.71;70.57
63190;BME280;49286;44.460;26.114;2023-02-14T15:05:38;101611.97;;;7.27;73.14
63190;BME280;49286;44.460;26.114;2023-02-14T15:08:20;101643.53;;;7.61;72.34
63190;BME280;49286;44.460;26.114;2023-02-14T15:10:54;101639.06;;;7.57;72.35
63190;BME280;49286;44.460;26.114;2023-02-14T15:13:43;101660.75;;;7.55;74.21
63190;BME280;49286;44.460;26.114;2023-02-14T15:16:22;101635.94;;;7.42;74.34
63190;BME280;49286;44.460;26.114;2023-02-14T15:18:50;101535.53;;;6.78;75.38
63190;BME280;49286;44.460;26.114;2023-02-14T15:21:18;101653.97;;;7.09;77.25
63190;BME280;49286;44.460;26.114;2023-02-14T15:23:44;101569.34;;;6.75;78.81